createdAt,value
2023-06-26T00:01:33.444Z,8.50
2023-06-26T00:04:00.694Z,8.80
2023-06-26T00:06:27.900Z,8.17
2023-06-26T00:08:55.280Z,8.97
2023-06-26T00:11:23.048Z,9.23
2023-06-26T00:13:49.734Z,8.33
2023-06-26T00:16:16.385Z,8.77
2023-06-26T00:18:43.077Z,9.30
2023-06-26T00:21:09.717Z,9.33
2023-06-26T00:23:39.798Z,8.67
2023-06-26T00:26:07.144Z,9.50
2023-06-26T00:28:34.004Z,9.03
2023-06-26T00:31:00.892Z,8.47
2023-06-26T00:33:27.599Z,8.67
2023-06-26T00:35:54.218Z,9.23
2023-06-26T00:38:21.130Z,8.70
2023-06-26T00:40:47.755Z,8.83
2023-06-26T00:43:14.458Z,9.33
2023-06-26T00:45:43.058Z,9.07
2023-06-26T00:48:13.137Z,9.93
2023-06-26T00:50:41.051Z,9.83
2023-06-26T00:53:07.781Z,8.53
2023-06-26T00:55:34.732Z,8.97
2023-06-26T00:58:01.416Z,9.33
2023-06-26T01:00:28.616Z,9.20
2023-06-26T01:03:00.120Z,9.90
2023-06-26T01:05:29.054Z,8.53
2023-06-26T01:07:56.362Z,9.13
2023-06-26T01:10:23.963Z,9.60
2023-06-26T01:12:50.901Z,8.90
2023-06-26T01:15:17.580Z,9.20
2023-06-26T01:17:46.229Z,9.00
2023-06-26T01:20:14.053Z,8.70
2023-06-26T01:22:51.111Z,8.73
2023-06-26T01:25:44.468Z,9.30
2023-06-26T01:28:12.448Z,8.33
2023-06-26T01:30:46.607Z,8.80
2023-06-26T01:33:14.676Z,8.20
2023-06-26T01:35:41.889Z,8.80
2023-06-26T01:38:19.655Z,9.30
2023-06-26T01:40:46.504Z,9.63
2023-06-26T01:43:41.853Z,8.97
2023-06-26T01:46:45.548Z,9.33
2023-06-26T01:49:49.472Z,8.33
2023-06-26T01:52:43.001Z,7.70
2023-06-26T01:55:36.982Z,7.67
2023-06-26T01:58:04.648Z,7.53
2023-06-26T02:00:32.876Z,7.70
2023-06-26T02:02:59.870Z,7.80
2023-06-26T02:05:26.689Z,8.00
2023-06-26T02:07:53.369Z,7.13
2023-06-26T02:10:20.007Z,8.20
2023-06-26T02:12:46.674Z,7.53
2023-06-26T02:15:13.514Z,6.90
2023-06-26T02:17:40.217Z,7.13
2023-06-26T02:20:08.818Z,7.80
2023-06-26T02:22:35.488Z,7.20
2023-06-26T02:25:02.087Z,7.13
2023-06-26T02:27:28.816Z,7.67
2023-06-26T02:29:55.474Z,7.23
2023-06-26T02:32:22.143Z,8.10
2023-06-26T02:34:48.773Z,7.20
2023-06-26T02:37:17.111Z,7.37
2023-06-26T02:39:43.679Z,7.53
2023-06-26T02:42:10.288Z,7.17
2023-06-26T02:44:36.924Z,7.43
2023-06-26T02:47:04.199Z,7.07
2023-06-26T02:49:30.826Z,8.03
2023-06-26T02:51:57.472Z,7.80
2023-06-26T02:54:24.119Z,7.23
2023-06-26T02:56:50.776Z,7.43
2023-06-26T02:59:17.345Z,7.33
2023-06-26T03:01:44.030Z,7.37
2023-06-26T03:04:11.606Z,6.63
2023-06-26T03:06:38.348Z,6.90
2023-06-26T03:09:04.981Z,7.80
2023-06-26T03:11:31.580Z,7.07
2023-06-26T03:13:58.308Z,7.70
2023-06-26T03:16:24.932Z,7.50
2023-06-26T03:18:51.552Z,7.20
2023-06-26T03:23:52.179Z,6.40
2023-06-26T03:26:18.766Z,7.07
2023-06-26T03:28:45.423Z,7.23
2023-06-26T03:31:12.136Z,7.30
2023-06-26T03:33:39.223Z,8.00
2023-06-26T03:36:07.142Z,7.50
2023-06-26T03:38:33.727Z,7.30
2023-06-26T03:41:00.407Z,7.10
2023-06-26T03:43:27.096Z,7.70
2023-06-26T03:45:53.694Z,6.80
2023-06-26T03:48:20.328Z,7.20
2023-06-26T03:50:47.121Z,7.33
2023-06-26T03:53:13.796Z,7.20
2023-06-26T03:55:40.727Z,7.07
2023-06-26T03:58:07.654Z,6.60
2023-06-26T04:00:34.298Z,7.43
2023-06-26T04:03:00.962Z,7.20
2023-06-26T04:05:27.598Z,7.63
2023-06-26T04:07:55.000Z,7.57
2023-06-26T04:10:22.329Z,7.50
2023-06-26T04:12:49.286Z,7.37
2023-06-26T04:15:15.987Z,7.30
2023-06-26T04:17:42.640Z,7.70
2023-06-26T04:20:10.092Z,7.30
2023-06-26T04:22:36.900Z,7.30
2023-06-26T04:25:04.508Z,7.07
2023-06-26T04:27:36.120Z,6.70
2023-06-26T04:30:04.090Z,7.40
2023-06-26T04:32:30.779Z,7.40
2023-06-26T04:34:57.452Z,7.90
2023-06-26T04:37:25.625Z,7.33
2023-06-26T04:39:52.316Z,7.70
2023-06-26T04:42:20.036Z,7.97
2023-06-26T04:44:46.690Z,7.47
2023-06-26T04:47:15.957Z,7.07
2023-06-26T04:49:46.822Z,6.90
2023-06-26T04:52:14.438Z,8.27
2023-06-26T04:54:41.263Z,7.60
2023-06-26T04:57:09.876Z,8.10
2023-06-26T04:59:36.640Z,8.03
2023-06-26T05:02:04.135Z,8.50
2023-06-26T05:04:30.872Z,7.87
2023-06-26T05:06:57.520Z,7.77
2023-06-26T05:09:24.191Z,8.50
2023-06-26T05:11:50.837Z,8.87
2023-06-26T05:14:17.480Z,7.83
2023-06-26T05:16:44.186Z,8.17
2023-06-26T05:19:10.785Z,8.77
2023-06-26T05:21:37.723Z,8.40
2023-06-26T05:24:05.271Z,8.33
2023-06-26T05:26:32.071Z,7.57
2023-06-26T05:28:59.014Z,8.90
2023-06-26T05:31:25.961Z,7.90
2023-06-26T05:33:56.349Z,8.60
2023-06-26T05:36:24.976Z,7.60
2023-06-26T05:38:51.949Z,8.03
2023-06-26T05:41:18.888Z,8.33
2023-06-26T05:43:45.517Z,7.30
2023-06-26T05:46:12.478Z,8.13
2023-06-26T05:48:39.226Z,7.20
2023-06-26T05:51:06.269Z,8.20
2023-06-26T05:53:33.325Z,8.07
2023-06-26T05:56:00.245Z,7.50
2023-06-26T05:58:30.829Z,7.50
2023-06-26T06:00:57.488Z,7.40
2023-06-26T06:03:24.597Z,7.57
2023-06-26T06:05:51.361Z,7.17
2023-06-26T06:08:18.127Z,7.77
2023-06-26T06:10:44.758Z,7.23
2023-06-26T06:13:11.435Z,7.60
2023-06-26T06:15:38.209Z,7.50
2023-06-26T06:18:05.064Z,7.67
2023-06-26T06:20:31.691Z,7.07
2023-06-26T06:22:58.276Z,6.70
2023-06-26T06:25:24.845Z,6.90
2023-06-26T06:27:51.454Z,7.03
2023-06-26T06:30:20.222Z,7.40
2023-06-26T06:32:53.645Z,7.13
2023-06-26T06:35:20.291Z,6.97
2023-06-26T06:37:46.881Z,7.00
2023-06-26T06:40:13.872Z,7.63
2023-06-26T06:42:40.761Z,6.50
2023-06-26T06:45:07.796Z,6.30
2023-06-26T06:47:35.024Z,6.97
2023-06-26T06:50:11.697Z,7.10
2023-06-26T06:52:41.112Z,7.17
2023-06-26T06:55:11.643Z,7.17
2023-06-26T06:57:39.912Z,7.40
2023-06-26T07:00:09.495Z,7.00
2023-06-26T07:02:40.601Z,6.30
2023-06-26T07:05:07.447Z,6.37
2023-06-26T07:07:35.843Z,7.03
2023-06-26T07:10:06.540Z,7.23
2023-06-26T07:12:33.155Z,6.40
2023-06-26T07:15:02.390Z,6.50
2023-06-26T07:17:29.059Z,6.13
2023-06-26T07:19:55.700Z,6.20
2023-06-26T07:22:22.521Z,6.20
2023-06-26T07:24:49.430Z,6.70
2023-06-26T07:27:17.183Z,5.77
2023-06-26T07:29:43.949Z,6.20
2023-06-26T07:32:12.149Z,5.80
2023-06-26T07:34:40.615Z,6.60
2023-06-26T07:37:07.226Z,6.33
2023-06-26T07:39:33.903Z,6.33
2023-06-26T07:42:00.613Z,6.30
2023-06-26T07:44:28.022Z,6.47
2023-06-26T07:46:54.907Z,6.10
2023-06-26T07:49:21.598Z,5.83
2023-06-26T07:51:48.267Z,6.47
2023-06-26T07:54:14.892Z,6.77
2023-06-26T07:57:00.836Z,6.13
2023-06-26T07:59:29.676Z,6.13
2023-06-26T08:01:58.066Z,6.30
2023-06-26T08:04:31.466Z,5.63
2023-06-26T08:06:59.667Z,5.83
2023-06-26T08:09:28.619Z,6.00
2023-06-26T08:11:56.034Z,6.50
2023-06-26T08:14:22.880Z,6.00
2023-06-26T08:16:49.813Z,5.60
2023-06-26T08:19:17.301Z,6.10
2023-06-26T08:21:45.133Z,6.13
2023-06-26T08:24:12.446Z,6.47
2023-06-26T08:26:39.148Z,5.67
2023-06-26T08:29:10.879Z,5.23
2023-06-26T08:31:39.976Z,5.73
2023-06-26T08:34:07.582Z,5.47
2023-06-26T08:36:34.550Z,5.60
2023-06-26T08:39:01.317Z,5.37
2023-06-26T08:41:28.503Z,5.37
2023-06-26T08:43:55.351Z,6.00
2023-06-26T08:46:22.026Z,6.13
2023-06-26T08:49:01.517Z,5.47
2023-06-26T08:51:29.829Z,6.10
2023-06-26T08:54:01.678Z,5.30
2023-06-26T08:56:33.422Z,5.40
2023-06-26T08:59:00.960Z,5.40
2023-06-26T09:01:28.456Z,5.73
2023-06-26T09:03:55.228Z,5.10
2023-06-26T09:06:21.926Z,5.67
2023-06-26T09:08:48.617Z,5.50
2023-06-26T09:11:15.220Z,5.90
2023-06-26T09:13:42.374Z,5.60
2023-06-26T09:16:09.674Z,5.27
2023-06-26T09:18:36.455Z,6.13
2023-06-26T09:21:10.908Z,5.40
2023-06-26T09:23:37.928Z,5.23
2023-06-26T09:26:06.037Z,5.40
2023-06-26T09:28:34.352Z,5.20
2023-06-26T09:31:07.777Z,4.80
2023-06-26T09:33:39.834Z,5.40
2023-06-26T09:36:19.141Z,5.30
2023-06-26T09:38:45.920Z,4.93
2023-06-26T09:41:12.703Z,5.57
2023-06-26T09:43:52.128Z,5.23
2023-06-26T09:46:28.349Z,5.17
2023-06-26T09:49:09.817Z,4.77
2023-06-26T09:51:37.703Z,5.17
2023-06-26T09:54:06.202Z,5.23
2023-06-26T09:56:34.021Z,4.80
2023-06-26T09:59:02.657Z,4.63
2023-06-26T10:01:30.424Z,5.13
2023-06-26T10:04:02.088Z,5.10
2023-06-26T10:06:36.649Z,5.33
2023-06-26T10:09:04.867Z,5.40
2023-06-26T10:11:41.759Z,5.60
2023-06-26T10:14:17.473Z,5.10
2023-06-26T10:16:46.265Z,4.77
2023-06-26T10:19:15.584Z,4.90
2023-06-26T10:21:42.668Z,4.90
2023-06-26T10:24:12.283Z,5.20
2023-06-26T10:26:43.406Z,4.90
2023-06-26T10:29:11.173Z,4.30
2023-06-26T10:31:39.427Z,4.97
2023-06-26T10:34:07.015Z,4.50
2023-06-26T10:36:36.170Z,4.33
2023-06-26T10:39:07.177Z,4.47
2023-06-26T10:41:52.904Z,4.30
2023-06-26T10:44:44.908Z,4.77
2023-06-26T10:47:29.410Z,4.73
2023-06-26T10:50:06.244Z,4.73
2023-06-26T10:52:40.079Z,4.30
2023-06-26T10:55:09.804Z,5.13
2023-06-26T10:57:42.068Z,4.63
2023-06-26T11:00:14.815Z,4.20
2023-06-26T11:02:51.572Z,4.40
2023-06-26T11:05:34.433Z,4.93
2023-06-26T11:08:09.174Z,4.77
2023-06-26T11:11:00.964Z,4.50
2023-06-26T11:13:28.070Z,4.57
2023-06-26T11:15:57.830Z,4.90
2023-06-26T11:18:25.337Z,4.53
2023-06-26T11:20:51.938Z,4.73
2023-06-26T11:23:25.629Z,4.70
2023-06-26T11:25:52.410Z,4.70
2023-06-26T11:28:18.977Z,4.70
2023-06-26T11:30:45.697Z,4.57
2023-06-26T11:33:12.494Z,4.50
2023-06-26T11:35:39.709Z,4.50
2023-06-26T11:38:06.423Z,4.23
2023-06-26T11:40:38.064Z,4.43
2023-06-26T11:43:05.166Z,4.83
2023-06-26T11:45:33.260Z,4.40
2023-06-26T11:48:01.643Z,4.43
2023-06-26T11:50:28.956Z,4.60
2023-06-26T11:52:59.860Z,4.30
2023-06-26T11:55:27.363Z,4.30
2023-06-26T11:57:56.250Z,4.63
2023-06-26T12:00:23.576Z,4.20
2023-06-26T12:02:51.519Z,4.37
2023-06-26T12:05:18.686Z,4.20
2023-06-26T12:07:50.206Z,4.63
2023-06-26T12:10:19.831Z,4.17
2023-06-26T12:12:47.142Z,4.17
2023-06-26T12:15:16.543Z,3.97
2023-06-26T12:17:44.099Z,4.40
2023-06-26T12:20:23.791Z,4.30
2023-06-26T12:22:50.696Z,4.47
2023-06-26T12:25:24.256Z,4.17
2023-06-26T12:27:51.186Z,4.27
2023-06-26T12:30:17.813Z,4.10
2023-06-26T12:32:48.362Z,4.23
2023-06-26T12:35:16.724Z,4.13
2023-06-26T12:37:45.627Z,4.20
2023-06-26T12:40:20.328Z,3.60
2023-06-26T12:42:47.802Z,3.90
2023-06-26T12:45:31.082Z,4.40
2023-06-26T12:48:11.791Z,4.23
2023-06-26T12:50:48.996Z,3.97
2023-06-26T12:53:16.180Z,4.40
2023-06-26T12:55:43.096Z,4.50
2023-06-26T12:58:12.584Z,4.20
2023-06-26T13:00:40.540Z,4.10
2023-06-26T13:03:09.967Z,4.07
2023-06-26T13:05:38.191Z,4.03
2023-06-26T13:08:05.114Z,4.30
2023-06-26T13:10:31.675Z,3.60
2023-06-26T13:12:58.500Z,3.97
2023-06-26T13:15:25.130Z,4.10
2023-06-26T13:17:51.762Z,3.80
2023-06-26T13:20:18.409Z,4.10
2023-06-26T13:22:47.107Z,3.77
2023-06-26T13:25:13.713Z,4.10
2023-06-26T13:27:40.368Z,3.60
2023-06-26T13:30:07.632Z,3.57
2023-06-26T13:32:34.417Z,4.10
2023-06-26T13:35:01.007Z,3.70
2023-06-26T13:37:27.621Z,3.97
2023-06-26T13:39:54.346Z,3.50
2023-06-26T13:42:21.358Z,3.67
2023-06-26T13:45:01.185Z,3.37
2023-06-26T13:47:31.148Z,3.23
2023-06-26T13:49:57.836Z,3.73
2023-06-26T13:52:24.555Z,3.27
2023-06-26T13:54:51.151Z,3.70
2023-06-26T13:57:17.726Z,3.77
2023-06-26T13:59:46.124Z,3.73
2023-06-26T14:02:14.420Z,3.97
2023-06-26T14:04:41.330Z,3.43
2023-06-26T14:07:08.401Z,3.70
2023-06-26T14:09:35.234Z,4.10
2023-06-26T14:12:02.057Z,3.40
2023-06-26T14:14:28.628Z,3.47
2023-06-26T14:16:55.222Z,3.77
2023-06-26T14:19:21.953Z,3.70
2023-06-26T14:21:48.513Z,3.50
2023-06-26T14:24:15.108Z,4.00
2023-06-26T14:26:41.764Z,3.70
2023-06-26T14:29:08.373Z,3.90
2023-06-26T14:31:35.133Z,3.20
2023-06-26T14:34:03.770Z,3.60
2023-06-26T14:36:32.992Z,4.10
2023-06-26T14:39:00.621Z,3.23
2023-06-26T14:41:28.778Z,4.03
2023-06-26T14:43:55.941Z,3.70
2023-06-26T14:46:23.199Z,3.60
2023-06-26T14:48:52.158Z,3.83
2023-06-26T14:51:18.778Z,3.73
2023-06-26T14:53:45.419Z,4.30
2023-06-26T14:56:13.430Z,3.97
2023-06-26T14:58:40.149Z,4.40
2023-06-26T15:01:06.750Z,3.60
2023-06-26T15:03:33.439Z,4.00
2023-06-26T15:06:00.264Z,3.80
2023-06-26T15:08:26.907Z,3.63
2023-06-26T15:10:53.540Z,3.40
2023-06-26T15:13:20.148Z,3.53
2023-06-26T15:15:46.862Z,3.37
2023-06-26T15:18:13.504Z,3.70
2023-06-26T15:20:40.473Z,3.63
2023-06-26T15:23:07.245Z,3.40
2023-06-26T15:25:36.110Z,3.43
2023-06-26T15:28:02.974Z,3.43
2023-06-26T15:30:29.635Z,3.47
2023-06-26T15:32:56.329Z,3.23
2023-06-26T15:35:23.195Z,3.37
2023-06-26T15:37:50.456Z,2.87
2023-06-26T15:40:17.168Z,3.30
2023-06-26T15:42:48.283Z,3.43
2023-06-26T15:45:15.819Z,3.30
2023-06-26T15:47:42.600Z,3.10
2023-06-26T15:50:09.721Z,2.90
2023-06-26T15:52:36.888Z,3.20
2023-06-26T15:55:03.776Z,2.90
2023-06-26T15:57:32.992Z,2.97
2023-06-26T16:00:01.139Z,3.50
2023-06-26T16:02:27.802Z,2.70
2023-06-26T16:04:54.521Z,3.10
2023-06-26T16:07:23.912Z,3.43
2023-06-26T16:09:51.545Z,2.97
2023-06-26T16:12:18.245Z,3.17
2023-06-26T16:14:44.826Z,3.00
2023-06-26T16:17:11.476Z,3.10
2023-06-26T16:19:38.068Z,2.80
2023-06-26T16:22:05.449Z,3.00
2023-06-26T16:24:32.098Z,3.07
2023-06-26T16:26:58.851Z,2.77
2023-06-26T16:29:25.489Z,2.97
2023-06-26T16:31:55.039Z,2.77
2023-06-26T16:34:22.222Z,3.10
2023-06-26T16:36:51.032Z,2.80
2023-06-26T16:39:20.672Z,3.00
2023-06-26T16:41:54.765Z,3.00
2023-06-26T16:44:22.248Z,2.90
2023-06-26T16:46:49.424Z,2.87
2023-06-26T16:49:16.022Z,2.67
2023-06-26T16:51:42.650Z,2.67
2023-06-26T16:54:10.940Z,2.77
2023-06-26T16:56:37.624Z,2.37
2023-06-26T16:59:04.260Z,2.50
2023-06-26T17:01:30.902Z,2.53
2023-06-26T17:03:58.185Z,2.53
2023-06-26T17:06:24.895Z,3.20
2023-06-26T17:08:51.495Z,2.97
2023-06-26T17:11:18.134Z,2.57
2023-06-26T17:13:44.794Z,2.67
2023-06-26T17:16:11.539Z,3.03
2023-06-26T17:18:38.289Z,2.50
2023-06-26T17:21:04.976Z,2.90
2023-06-26T17:23:31.596Z,2.57
2023-06-26T17:26:03.620Z,2.47
2023-06-26T17:28:32.293Z,2.63
2023-06-26T17:30:59.011Z,2.50
2023-06-26T17:33:25.640Z,3.03
2023-06-26T17:35:52.342Z,2.30
2023-06-26T17:38:18.920Z,2.70
2023-06-26T17:40:45.545Z,2.30
2023-06-26T17:43:12.134Z,2.70
2023-06-26T17:45:38.970Z,2.70
2023-06-26T17:48:06.169Z,2.77
2023-06-26T17:50:32.894Z,2.60
2023-06-26T17:53:00.208Z,2.83
2023-06-26T17:55:27.122Z,2.60
2023-06-26T17:57:53.951Z,2.57
2023-06-26T18:00:20.787Z,2.73
2023-06-26T18:02:47.529Z,2.63
2023-06-26T18:05:14.289Z,2.83
2023-06-26T18:07:57.644Z,2.70
2023-06-26T18:10:27.746Z,2.43
2023-06-26T18:12:56.929Z,2.53
2023-06-26T18:15:23.889Z,2.43
2023-06-26T18:17:50.842Z,2.00
2023-06-26T18:20:17.573Z,2.37
2023-06-26T18:22:44.408Z,2.87
2023-06-26T18:25:10.991Z,2.50
2023-06-26T18:27:40.625Z,2.30
2023-06-26T18:30:08.039Z,2.40
2023-06-26T18:32:34.774Z,2.50
2023-06-26T18:35:01.387Z,2.60
2023-06-26T18:37:27.940Z,2.33
2023-06-26T18:39:54.532Z,2.40
2023-06-26T18:42:21.268Z,2.30
2023-06-26T18:44:48.110Z,2.43
2023-06-26T18:47:14.920Z,2.60
2023-06-26T18:49:43.407Z,1.90
2023-06-26T18:52:10.106Z,2.40
2023-06-26T18:54:36.697Z,2.20
2023-06-26T18:57:03.620Z,1.97
2023-06-26T18:59:30.197Z,2.60
2023-06-26T19:01:56.887Z,2.33
2023-06-26T19:04:24.899Z,2.80
2023-06-26T19:06:51.689Z,2.03
2023-06-26T19:09:18.835Z,2.57
2023-06-26T19:11:45.520Z,2.33
2023-06-26T19:14:12.133Z,1.87
2023-06-26T19:16:39.630Z,2.73
2023-06-26T19:19:06.217Z,2.57
2023-06-26T19:21:32.902Z,2.50
2023-06-26T19:23:59.527Z,2.17
2023-06-26T19:26:26.969Z,2.63
2023-06-26T19:28:53.737Z,2.20
2023-06-26T19:31:20.375Z,2.27
2023-06-26T19:33:46.995Z,2.00
2023-06-26T19:36:15.872Z,2.27
2023-06-26T19:38:42.544Z,2.10
2023-06-26T19:41:09.212Z,2.80
2023-06-26T19:43:36.115Z,2.03
2023-06-26T19:46:03.106Z,2.03
2023-06-26T19:48:30.717Z,2.00
2023-06-26T19:50:57.566Z,2.03
2023-06-26T19:53:26.275Z,2.20
2023-06-26T19:55:52.862Z,1.87
2023-06-26T19:58:19.540Z,2.00
2023-06-26T20:00:46.105Z,2.27
2023-06-26T20:03:12.776Z,2.07
2023-06-26T20:05:39.810Z,2.20
2023-06-26T20:08:06.714Z,2.50
2023-06-26T20:10:33.301Z,2.23
2023-06-26T20:12:59.940Z,2.10
2023-06-26T20:15:26.547Z,2.37
2023-06-26T20:17:53.218Z,2.40
2023-06-26T20:20:19.859Z,2.20
2023-06-26T20:22:46.459Z,1.70
2023-06-26T20:25:13.114Z,1.80
2023-06-26T20:27:39.765Z,2.23
2023-06-26T20:30:07.837Z,2.53
2023-06-26T20:32:34.540Z,2.33
2023-06-26T20:35:01.189Z,2.40
2023-06-26T20:37:27.857Z,2.23
2023-06-26T20:39:54.707Z,2.33
2023-06-26T20:42:21.523Z,2.47
2023-06-26T20:44:48.875Z,2.30
2023-06-26T20:47:16.228Z,2.27
2023-06-26T20:49:43.883Z,2.10
2023-06-26T20:52:12.756Z,2.27
2023-06-26T20:54:41.009Z,2.70
2023-06-26T20:57:10.125Z,2.43
2023-06-26T20:59:40.198Z,2.10
2023-06-26T21:02:07.268Z,2.43
2023-06-26T21:04:37.658Z,2.50
2023-06-26T21:07:06.925Z,2.27
2023-06-26T21:09:33.680Z,2.30
2023-06-26T21:12:02.559Z,2.40
2023-06-26T21:14:29.221Z,2.37
2023-06-26T21:16:55.851Z,2.37
2023-06-26T21:19:22.408Z,2.80
2023-06-26T21:21:49.382Z,2.30
2023-06-26T21:24:16.041Z,2.77
2023-06-26T21:26:42.831Z,2.10
2023-06-26T21:29:09.598Z,2.23
2023-06-26T21:31:36.377Z,2.30
2023-06-26T21:34:03.203Z,2.40
2023-06-26T21:36:29.883Z,1.90
2023-06-26T21:38:56.570Z,2.53
2023-06-26T21:41:23.655Z,2.40
2023-06-26T21:43:50.384Z,2.47
2023-06-26T21:46:17.113Z,2.50
2023-06-26T21:48:49.304Z,2.10
2023-06-26T21:51:15.973Z,2.40
2023-06-26T21:53:42.623Z,2.63
2023-06-26T21:56:09.228Z,2.30
2023-06-26T21:58:35.877Z,1.97
2023-06-26T22:01:02.667Z,2.20
2023-06-26T22:03:29.453Z,2.27
2023-06-26T22:05:56.137Z,2.13
2023-06-26T22:08:22.835Z,1.93
2023-06-26T22:10:49.522Z,2.17
2023-06-26T22:13:16.435Z,2.30
2023-06-26T22:15:43.465Z,1.80
2023-06-26T22:18:10.360Z,1.90
2023-06-26T22:20:37.086Z,2.07
2023-06-26T22:23:03.807Z,2.00
2023-06-26T22:25:30.442Z,1.83
2023-06-26T22:27:57.162Z,1.80
2023-06-26T22:30:25.544Z,1.87
2023-06-26T22:32:52.439Z,2.13
2023-06-26T22:35:19.402Z,1.83
2023-06-26T22:37:46.116Z,2.00
2023-06-26T22:40:14.223Z,1.90
2023-06-26T22:42:41.385Z,2.17
2023-06-26T22:45:09.816Z,2.40
2023-06-26T22:47:37.511Z,2.03
2023-06-26T22:50:06.647Z,2.10
2023-06-26T22:52:33.421Z,2.00
2023-06-26T22:55:01.147Z,2.13
2023-06-26T22:57:28.386Z,2.40
2023-06-26T22:59:55.150Z,2.00
2023-06-26T23:02:22.252Z,2.33
2023-06-26T23:04:49.819Z,2.40
2023-06-26T23:07:16.694Z,2.00
2023-06-26T23:09:43.821Z,2.10
2023-06-26T23:12:10.589Z,2.00
2023-06-26T23:14:37.225Z,2.20
2023-06-26T23:17:06.693Z,2.03
2023-06-26T23:19:39.748Z,1.87
2023-06-26T23:22:10.597Z,1.77
2023-06-26T23:24:38.565Z,1.90
2023-06-26T23:27:12.027Z,1.83
2023-06-26T23:29:40.129Z,1.90
2023-06-26T23:32:08.336Z,1.60
2023-06-26T23:34:40.030Z,2.20
2023-06-26T23:37:13.672Z,1.90
2023-06-26T23:39:46.419Z,2.13
2023-06-26T23:42:13.202Z,1.73
2023-06-26T23:44:41.394Z,1.80
2023-06-26T23:47:08.246Z,1.87
2023-06-26T23:49:36.484Z,2.00
2023-06-26T23:52:04.369Z,2.00
2023-06-26T23:54:32.357Z,1.90
2023-06-26T23:56:59.460Z,2.03
2023-06-26T23:59:26.124Z,2.60
